Wednesday, November 14, 2018, 8:25 PM CST
Back to Local

KPWK, Chicago Executive Airport

Location: Wheeling, IL, United States Lat: 42.117
Local Time: 8:25 PM CST ( 2:25 GMT) Lon: -87.9
Time Zone: US/Central Elev: 646 ft

Show me the last for .
Show Coded

Time T Td Feel RH Dir Speed Gust Alt SLP Vis Weather Sky Remarks
2018-11-14 19:52 25 18 21 74 160° 3 - 30.43 30.46 10 CLR None
2018-11-14 18:52 28 20 - 71 - Calm - 30.45 30.48 10 CLR None
2018-11-14 17:52 30 21 - 68 - Calm - 30.47 30.50 10 CLR 6-hr Min Temp (6pm): 30.0°F
6-hr Max Temp (6pm): 35.1°F
2018-11-14 16:52 31 20 27 63 90° 3 - 30.48 30.51 10 CLR None
2018-11-14 15:52 33 21 27 60 40° 7 - 30.49 30.52 10 CLR None
2018-11-14 14:52 34 20 30 55 80° 5 - 30.51 30.53 10 CLR None
2018-11-14 13:52 34 20 28 55 100° 7 - 30.50 30.53 10 CLR None
2018-11-14 12:52 34 19 30 53 60° 5 - 30.55 30.58 10 FEW026 None
2018-11-14 11:52 31 16 - 53 - Calm - 30.58 30.61 10 CLR 6-hr Min Temp (12pm): 18.0°F
6-hr Max Temp (12pm): 32.0°F
2018-11-14 10:52 31 15 27 51 Variable 3 - 30.61 30.64 10 CLR None
2018-11-14 09:52 27 11 20 50 310° 6 - 30.60 30.63 10 CLR None
2018-11-14 08:52 24 8 16 49 320° 7 - 30.59 30.62 10 CLR None
2018-11-14 07:52 21 8 16 56 320° 3 - 30.59 30.62 10 CLR None
2018-11-14 06:52 18 7 - 61 - Calm - 30.56 30.59 10 CLR None
2018-11-14 05:52 19 8 9 61 350° 8 - 30.54 30.57 10 CLR 6-hr Min Temp (6am): 18.0°F
6-hr Max Temp (6am): 21.9°F
2018-11-14 04:52 19 9 10 64 360° 7 - 30.54 30.57 10 CLR None
2018-11-14 03:52 19 10 14 67 340° 3 - 30.54 30.57 10 CLR None
2018-11-14 02:52 20 9 - 61 - Calm - 30.54 30.57 10 CLR None
2018-11-14 01:52 19 9 - 64 - Calm - 30.53 30.55 10 CLR None
2018-11-14 00:52 21 9 16 58 290° 3 - 30.53 30.55 10 CLR None
2018-11-13 23:52 22 9 14 56 300° 6 - 30.51 30.54 10 CLR 6-hr Min Temp (12am): 21.9°F
6-hr Max Temp (12am): 26.1°F
24-hr Min Temp (12am): 19.0°F
24-hr Max Temp (12am): 30.0°F
2018-11-13 22:52 23 9 17 54 260° 5 - 30.50 30.53 10 CLR None
2018-11-13 21:52 23 9 18 54 270° 3 - 30.49 30.52 10 CLR None
2018-11-13 20:52 24 9 18 51 270° 5 - 30.48 30.51 10 CLR None

Support USWX by starting your Amazon purchase here.